Ile Loop Chesterfield, New Caledonia
Current Conditions -  °F | °C
As of 11:00 PM on Thursday 29 Jan 2015 (Local Time) from NWWW Reporting Station
Scattered Clouds Scattered Clouds  
Wind Chill: 82°   Ceiling: Unl
Heat Index: 85°   Visibility: 6mi
Dew Point: 66°   Wind: 7mph
Humidity: 58%   Direction: 10°N
Pressure: 29.65"   Gusts: NA
Location:  19.97°S, 158.52°E
Report Text: NWWW 291200Z AUTO 01006KT 9999 SCT052 28/19 Q1004
Loading
Personal Weather Stations






























Interactive Weather Map New forecast layout! Learn more

10-Day Weather Forecast

Advertisements
Track Severe Weather on mobile